• Join FlightAware (Why Join?)
  • Login
  • US Flag 
05:00PM EDT


 

Airport Tracker/Info


-or-


 

Live Flight TrackerFlight Track Log ✈ N1560T ✈ 23-Aug-2013 ✈ KDPA - KLNL

Flight Track Log - Related Links

Times and Time Zones

All times are in EDT time to prevent confusion due to time zone crossing. See the N1560T flight status page for this flight to view local times or setup timezone preferences in your user account.

Time Position Orientation Groundspeed Altitude Reporting Facility
EDT Latitude Longitude Course Direction KTS MPH feet Rate Location/Type
02:27PM 41.9500 -88.2667 29° Northeast 171 197 2,100  Level Chicago TRACON
02:28PM 41.9833 -88.3167 312° West 164 189 2,700 360 Climbing Chicago TRACON
02:29PM 42.0089 -88.3561 311° West 166 191 2,900 120 Climbing Chicago Center
02:30PM 42.0478 -88.3903 327° Northwest 171 197 3,000  Climbing Chicago Center
02:31PM 42.1033 -88.3939 357° North 169 194 3,000  Level Chicago Center
02:32PM 42.1829 -87.9837 29° Northeast  Level FlightAware Approximate
02:32PM 42.1456 -88.4014 352° North 161 185 3,000  Level Chicago Center
02:33PM 42.1894 -88.4036 358° North 158 182 3,500 480 Climbing Chicago Center
02:34PM 42.2333 -88.3961 North 157 181 4,000 420 Climbing Chicago Center
02:35PM 42.2756 -88.3803 16° North 159 183 4,400 600 Climbing Chicago Center
02:36PM 42.3219 -88.3503 26° Northeast 155 178 5,300 720 Climbing Chicago Center
02:37PM 42.3542 -88.3286 26° Northeast 150 173 6,000 300 Climbing Chicago Center
02:38PM 42.4078 -88.3375 353° North 171 197 6,000 300 Level Chicago Center
02:39PM 42.4547 -88.3364 North 170 196 6,700 900 Climbing Chicago Center
02:40PM 42.4983 -88.3378 359° North 160 184 7,900 1,200 Climbing Chicago Center
02:41PM 42.5442 -88.3397 358° North 162 186 9,200 1,200 Climbing Chicago Center
02:42PM 42.5900 -88.3436 356° North 165 190 10,500 1,380 Climbing Chicago Center
02:43PM 42.6436 -88.3475 357° North 166 191 12,100 1,320 Climbing Chicago Center
02:44PM 42.6903 -88.3606 348° North 169 194 13,300 960 Climbing Chicago Center
02:45PM 42.7383 -88.3736 349° North 173 199 14,100 360 Climbing Chicago Center
02:46PM 42.7944 -88.3867 350° North 202 232 14,100  Level Chicago Center
02:47PM 42.8572 -88.3983 352° North 224 258 14,100  Level Chicago Center
02:48PM 42.9292 -88.4136 351° North 223 257 14,100  Level Chicago Center
02:49PM 42.9892 -88.4292 349° North 220 253 14,100  Level Chicago Center
02:50PM 43.0511 -88.4444 350° North 226 260 14,100  Level Chicago Center
02:51PM 43.1117 -88.4569 351° North 221 254 14,100  Level Chicago Center
02:52PM 43.1736 -88.4717 350° North 223 257 14,100  Level Chicago Center
02:54PM 43.2342 -88.4856 351° North 221 254 14,100  Level Chicago Center
02:55PM 43.3061 -88.5031 350° North 223 257 14,100  Level Chicago Center
02:56PM 43.3672 -88.5181 350° North 222 255 14,100  Level Chicago Center
02:57PM 43.4294 -88.5356 348° North 222 255 14,100  Level Chicago Center
02:58PM 43.4961 -88.5494 351° North 231 266 14,100  Level Chicago Center
02:59PM 43.5578 -88.5633 351° North 225 259 14,100  Level Chicago Center
03:00PM 43.6192 -88.5778 350° North 222 255 14,100  Level Chicago Center
03:01PM 43.6800 -88.5925 350° North 222 255 14,100 -60 Level Chicago Center
03:02PM 43.7508 -88.6100 350° North 222 255 14,000 -60 Descending Chicago Center
03:03PM 43.8108 -88.6231 351° North 220 253 14,000  Level Chicago Center
03:04PM 43.8719 -88.6383 350° North 222 255 14,000  Level Chicago Center
03:05PM 43.9328 -88.6536 350° North 222 255 14,000  Level Chicago Center
03:06PM 43.9950 -88.6672 351° North 224 258 14,000  Level Chicago Center
03:07PM 44.0669 -88.6842 350° North 224 258 14,000  Level Chicago Center
03:08PM 44.1397 -88.7039 349° North 224 258 14,000  Level Minneapolis Center
03:09PM 44.1981 -88.7178 350° North 224 258 14,000  Level Minneapolis Center
03:10PM 44.2597 -88.7336 350° North 225 259 14,000  Level Minneapolis Center
03:11PM 44.3211 -88.7486 350° North 224 258 14,000  Level Minneapolis Center
03:12PM 44.3831 -88.7633 350° North 225 259 14,000  Level Minneapolis Center
03:13PM 44.4569 -88.7822 350° North 225 259 14,000  Level Minneapolis Center
03:14PM 44.5186 -88.7964 351° North 225 259 14,000  Level Minneapolis Center
03:15PM 44.5800 -88.8108 350° North 225 259 14,000  Level Minneapolis Center
03:16PM 44.6417 -88.8267 350° North 226 260 14,000  Level Minneapolis Center
03:17PM 44.7031 -88.8431 349° North 224 258 14,000  Level Minneapolis Center
03:19PM 44.7650 -88.8578 350° North 226 260 14,000  Level Minneapolis Center
03:20PM 44.8389 -88.8744 351° North 223 257 14,000  Level Minneapolis Center
03:21PM 44.9011 -88.8906 350° North 228 262 14,000  Level Minneapolis Center
03:22PM 44.9622 -88.9072 349° North 224 258 14,000  Level Minneapolis Center
03:23PM 45.0244 -88.9217 351° North 227 261 14,000  Level Minneapolis Center
03:24PM 45.0861 -88.9381 349° North 226 260 14,000  Level Minneapolis Center
03:25PM 45.1486 -88.9528 351° North 228 262 14,000  Level Minneapolis Center
03:26PM 45.2225 -88.9708 350° North 226 260 14,000  Level Minneapolis Center
03:27PM 45.2850 -88.9875 349° North 229 264 14,000  Level Minneapolis Center
03:28PM 45.3486 -89.0039 350° North 234 269 14,000 -240 Level Minneapolis Center
03:29PM 45.4111 -89.0192 350° North 230 265 13,600 -780 Descending Minneapolis Center
03:30PM 45.4928 -89.0406 350° North 248 285 12,300 -1,140 Descending Minneapolis Center
03:31PM 45.5747 -89.0622 350° North 248 285 11,000 -1,200 Descending Minneapolis Center
03:32PM 45.6428 -89.0786 350° North 249 287 9,900 -1,080 Descending Minneapolis Center
03:33PM 45.7075 -89.0961 349° North 237 273 8,800 -1,080 Descending Minneapolis Center
03:34PM 45.7683 -89.1139 348° North 226 260 7,700 -1,020 Descending Minneapolis Center
03:35PM 45.8267 -89.1331 347° North 219 252 6,700 -1,020 Descending Minneapolis Center
03:36PM 45.8839 -89.1494 349° North 212 244 5,700 -1,020 Descending Minneapolis Center
03:38PM 45.9613 -89.1628 353° North  Level FlightAware Approximate
03:45PM 46.1500 -89.2000 352° North  Level FlightAware Approximate
03:46PM 46.1541 -89.2120 352° North  Level Estimated
03:47PM 46.1541 -89.2120 352° North  Level Estimated
03:48PM 46.1541 -89.2120 352° North  Level Estimated